< < Back
Terminal Aerodrome Forecast


Current Version              Previous Versions:   1  2  3  4  5  6  7  8  9  

Terminal Aerodrome Forecast

873
FTUS42 KFFC 282300
TAFPDK
TAF
KPDK 282320Z 2900/2924 32010G17KT P6SM FEW070
     FM290300 32008KT P6SM SKC
     FM291600 34012G18KT P6SM SCT050=



Latest METAR

350
SAUS70 KWBC 290200 RRA
MTRPDK
METAR KPDK 290153Z 32006KT 10SM CLR 24/14 A2997 RMK AO2 SLP129 T02440144
$


USA.gov is the U.S. government's official web portal to all federal, state and local government web resources and services.